»·PEaware :: ASA578 KPHX-KSEA

ASA578 :: KPHX-KSEA

FLIGHT INFORMATION

Flight Status: Arrived
Operator:
Alaska Airlines
More flights by this operator :: More flights under this callsign
Pilot: Sean T. (30125)
Aircraft: AIRBUS A319
(A319)
More flights by this aircraft type
Origin: KPHX Phoenix Sky Harbor Intl
United States
Destination: KSEA Seattle-Tacoma Intl
United States
More flights between these airports :: More routes between these airports
Route: QUAKY1 GCN CRITO KU69K PDT CHINS4
File this flight plan on PilotEdge
Remarks:
Altitude:
(Current/Filed)
32,000ft
Speed:
(Current/Filed)
290kts
Departed: 14-Feb-21 06:18 PM
Arrived: 14-Feb-21 08:54 PM
Distance/Time
Traveled:
961nm/2:35
Distance/Time
To Go:
Arrived

Flight Plot

Page will automatically refresh every two minutes.

Flight plan parsing failed; only flown route is shown


Map Options




Map Legend


Flown Route
Filed Route
Departure Airport
Arrival Airport
Navaid (VOR, NDB)
Fix

Horizontal Profiles

Position Reports

Time Latitude Longitude Heading Altitude Ground
Speed
14-Feb-21 17:44 33.434434 -112.013120 295 1125ft 0kts
14-Feb-21 17:45 33.434434 -112.013120 295 1125ft 0kts
14-Feb-21 17:46 33.434434 -112.013120 295 1125ft 0kts
14-Feb-21 17:47 33.434434 -112.013120 295 1125ft 0kts
14-Feb-21 17:48 33.434434 -112.013120 295 1125ft 0kts
14-Feb-21 17:49 33.434434 -112.013120 295 1125ft 0kts
14-Feb-21 17:50 33.434434 -112.013120 295 1125ft 0kts
14-Feb-21 17:51 33.434434 -112.013120 295 1125ft 0kts
14-Feb-21 17:52 33.434434 -112.013120 295 1125ft 0kts
14-Feb-21 17:53 33.434434 -112.013120 295 1125ft 0kts
14-Feb-21 17:54 33.434434 -112.013120 295 1125ft 0kts
14-Feb-21 17:55 33.434434 -112.013120 295 1125ft 0kts
14-Feb-21 17:56 33.434434 -112.013120 295 1125ft 0kts
14-Feb-21 17:57 33.434422 -112.013102 306 1125ft 1kts
14-Feb-21 17:58 33.434319 -112.012490 237 1126ft 2kts
14-Feb-21 17:59 33.434654 -112.012318 174 1126ft 0kts
14-Feb-21 18:00 33.434653 -112.012318 174 1126ft 0kts
14-Feb-21 18:01 33.434653 -112.012318 174 1126ft 0kts
14-Feb-21 18:02 33.434653 -112.012318 174 1126ft 0kts
14-Feb-21 18:03 33.434653 -112.012318 174 1126ft 0kts
14-Feb-21 18:04 33.434653 -112.012318 174 1126ft 0kts
14-Feb-21 18:05 33.434653 -112.012318 174 1126ft 0kts
14-Feb-21 18:06 33.434653 -112.012318 174 1126ft 0kts
14-Feb-21 18:07 33.434653 -112.012318 174 1126ft 0kts
14-Feb-21 18:08 33.434653 -112.012318 174 1126ft 0kts
14-Feb-21 18:09 33.434653 -112.012318 174 1126ft 0kts
14-Feb-21 18:10 33.433887 -112.012335 184 1126ft 0kts
14-Feb-21 18:11 33.432865 -112.010617 90 1128ft 12kts
14-Feb-21 18:12 33.432878 -112.005762 89 1128ft 17kts
14-Feb-21 18:13 33.432867 -111.999076 89 1126ft 21kts
14-Feb-21 18:14 33.432684 -111.992413 144 1126ft 9kts
14-Feb-21 18:15 33.432132 -111.992533 222 1126ft 0kts
14-Feb-21 18:16 33.431047 -111.995661 270 1124ft 39kts
14-Feb-21 18:17 33.431084 -112.042333 270 2617ft 171kts
14-Feb-21 18:18 33.431428 -112.106829 270 4854ft 225kts
14-Feb-21 18:19 33.437562 -112.185651 297 5538ft 239kts
14-Feb-21 18:20 33.492323 -112.205220 22 7013ft 227kts
14-Feb-21 18:21 33.553929 -112.188576 12 8546ft 232kts
14-Feb-21 18:22 33.619187 -112.165048 36 10582ft 265kts
14-Feb-21 18:23 33.670899 -112.100721 46 12609ft 273kts
14-Feb-21 18:24 33.723613 -112.033399 46 14628ft 282kts
14-Feb-21 18:25 33.791849 -111.991775 8 16654ft 291kts
14-Feb-21 18:26 33.872999 -111.977131 8 18844ft 301kts
14-Feb-21 18:27 33.956826 -111.961327 8 20973ft 311kts
14-Feb-21 18:28 34.043491 -111.944892 8 22919ft 321kts
14-Feb-21 18:29 34.133718 -111.940315 354 24707ft 331kts
14-Feb-21 18:30 34.226170 -111.950821 354 26331ft 340kts
14-Feb-21 18:31 34.321349 -111.961382 354 27844ft 349kts
14-Feb-21 18:32 34.418856 -111.972186 354 29243ft 357kts
14-Feb-21 18:33 34.518601 -111.983223 354 30513ft 365kts
14-Feb-21 18:34 34.620651 -111.994518 354 31665ft 372kts
14-Feb-21 18:35 34.725373 -112.006131 354 32121ft 395kts
14-Feb-21 18:36 34.839755 -112.018952 354 32122ft 430kts
14-Feb-21 18:37 34.963203 -112.032890 354 32122ft 462kts
14-Feb-21 18:38 35.091819 -112.047435 354 32120ft 466kts
14-Feb-21 18:39 35.220795 -112.062010 354 32120ft 466kts
14-Feb-21 18:40 35.349218 -112.076610 354 32120ft 466kts
14-Feb-21 18:41 35.478172 -112.089657 355 32120ft 466kts
14-Feb-21 18:42 35.606861 -112.103765 354 32120ft 466kts
14-Feb-21 18:43 35.735712 -112.119415 354 32120ft 466kts
14-Feb-21 18:44 35.863980 -112.134925 353 32120ft 466kts
14-Feb-21 18:45 35.989429 -112.172833 338 32120ft 466kts
14-Feb-21 18:46 36.104702 -112.245278 330 32120ft 466kts
14-Feb-21 18:47 36.217641 -112.323011 331 32120ft 466kts
14-Feb-21 18:48 36.330432 -112.400824 331 32120ft 466kts
14-Feb-21 18:49 36.443591 -112.479170 331 32120ft 466kts
14-Feb-21 18:50 36.556491 -112.557603 331 32120ft 466kts
14-Feb-21 18:51 36.669025 -112.636047 331 32120ft 466kts
14-Feb-21 18:52 36.781952 -112.715452 330 32120ft 466kts
14-Feb-21 18:53 36.894306 -112.794471 330 32120ft 466kts
14-Feb-21 18:54 37.007228 -112.874010 330 32120ft 466kts
14-Feb-21 18:55 37.119671 -112.953429 330 32120ft 466kts
14-Feb-21 18:56 37.232449 -113.033064 330 32120ft 466kts
14-Feb-21 18:57 37.345009 -113.113101 330 32120ft 466kts
14-Feb-21 18:58 37.457785 -113.193629 330 32120ft 466kts
14-Feb-21 19:00 37.570210 -113.274182 330 32120ft 466kts
14-Feb-21 19:01 37.682490 -113.354896 330 32120ft 466kts
14-Feb-21 19:02 37.794687 -113.435849 330 32120ft 466kts
14-Feb-21 19:03 37.887862 -113.503299 330 32120ft 466kts
14-Feb-21 19:04 37.990803 -113.578053 330 32120ft 466kts
14-Feb-21 19:05 38.103059 -113.659874 329 32120ft 466kts
14-Feb-21 19:06 38.215523 -113.742230 329 32120ft 466kts
14-Feb-21 19:07 38.327552 -113.824448 329 32120ft 466kts
14-Feb-21 19:08 38.439485 -113.906882 329 32120ft 466kts
14-Feb-21 19:09 38.551311 -113.989537 329 32120ft 466kts
14-Feb-21 19:10 38.663367 -114.072660 329 32120ft 466kts
14-Feb-21 19:11 38.774916 -114.155707 329 32120ft 466kts
14-Feb-21 19:12 38.886772 -114.239285 329 32120ft 466kts
14-Feb-21 19:13 38.998282 -114.322916 329 32120ft 466kts
14-Feb-21 19:14 39.110213 -114.407155 330 32120ft 466kts
14-Feb-21 19:15 39.221874 -114.491197 329 32120ft 466kts
14-Feb-21 19:15 39.315529 -114.560255 333 32119ft 466kts
14-Feb-21 19:17 39.450832 -114.646541 334 32120ft 466kts
14-Feb-21 19:18 39.566549 -114.720962 333 32120ft 466kts
14-Feb-21 19:18 39.663353 -114.783227 333 32120ft 466kts
14-Feb-21 19:20 39.798160 -114.870118 333 32120ft 466kts
14-Feb-21 19:20 39.894747 -114.932596 333 32120ft 466kts
14-Feb-21 19:22 40.030086 -115.020477 333 32120ft 466kts
14-Feb-21 19:22 40.126646 -115.083366 333 32120ft 466kts
14-Feb-21 19:23 40.242090 -115.158589 333 32120ft 466kts
14-Feb-21 19:25 40.377037 -115.247181 333 32120ft 466kts
14-Feb-21 19:25 40.473315 -115.310662 333 32120ft 466kts
14-Feb-21 19:26 40.589201 -115.387345 333 32120ft 466kts
14-Feb-21 19:27 40.704692 -115.464065 333 32120ft 466kts
14-Feb-21 19:28 40.820083 -115.541026 333 32120ft 466kts
14-Feb-21 19:29 40.935095 -115.618033 333 32120ft 466kts
14-Feb-21 19:30 41.050679 -115.696021 332 32120ft 466kts
14-Feb-21 19:31 41.165854 -115.773746 332 32120ft 466kts
14-Feb-21 19:32 41.280991 -115.851588 332 32120ft 466kts
14-Feb-21 19:33 41.396184 -115.929879 332 32120ft 466kts
14-Feb-21 19:34 41.509671 -116.007211 333 32120ft 466kts
14-Feb-21 19:35 41.626057 -116.082870 334 32120ft 466kts
14-Feb-21 19:36 41.742283 -116.158525 334 32120ft 466kts
14-Feb-21 19:37 41.858595 -116.234642 334 32120ft 466kts
14-Feb-21 19:38 41.974746 -116.310974 334 32120ft 466kts
14-Feb-21 19:39 42.090999 -116.387687 334 32120ft 466kts
14-Feb-21 19:40 42.207436 -116.464526 334 32120ft 466kts
14-Feb-21 19:41 42.323294 -116.541514 334 32120ft 466kts
14-Feb-21 19:42 42.439280 -116.618992 334 32120ft 466kts
14-Feb-21 19:43 42.555229 -116.697090 333 32120ft 466kts
14-Feb-21 19:44 42.671419 -116.775626 333 32120ft 466kts
14-Feb-21 19:45 42.786950 -116.853810 333 32120ft 466kts
14-Feb-21 19:46 42.902724 -116.932455 333 32120ft 466kts
14-Feb-21 19:47 43.018620 -117.011470 333 32120ft 466kts
14-Feb-21 19:48 43.134476 -117.090751 333 32120ft 466kts
14-Feb-21 19:49 43.249861 -117.169851 333 32120ft 466kts
14-Feb-21 19:50 43.365414 -117.249656 333 32120ft 466kts
14-Feb-21 19:51 43.481035 -117.329887 333 32120ft 466kts
14-Feb-21 19:52 43.596476 -117.410327 333 32120ft 466kts
14-Feb-21 19:53 43.711935 -117.491136 333 32120ft 466kts
14-Feb-21 19:54 43.827310 -117.572246 333 32120ft 466kts
14-Feb-21 19:55 43.942478 -117.653571 332 32120ft 466kts
14-Feb-21 19:56 44.057615 -117.736142 332 32120ft 466kts
14-Feb-21 19:57 44.172627 -117.818286 332 32120ft 466kts
14-Feb-21 19:58 44.287765 -117.900485 332 32120ft 466kts
14-Feb-21 19:59 44.403030 -117.983243 332 32120ft 466kts
14-Feb-21 20:00 44.518280 -118.066369 332 32120ft 466kts
14-Feb-21 20:01 44.633201 -118.149629 332 32120ft 466kts
14-Feb-21 20:02 44.748075 -118.233232 332 32120ft 466kts
14-Feb-21 20:03 44.862900 -118.317176 332 32120ft 466kts
14-Feb-21 20:04 44.977799 -118.401554 332 32120ft 466kts
14-Feb-21 20:05 45.092503 -118.486174 332 32120ft 466kts
14-Feb-21 20:06 45.207188 -118.570829 332 32120ft 466kts
14-Feb-21 20:07 45.321874 -118.656137 332 32120ft 466kts
14-Feb-21 20:08 45.436536 -118.742297 332 32120ft 466kts
14-Feb-21 20:09 45.550922 -118.828137 332 32120ft 466kts
14-Feb-21 20:10 45.662978 -118.919964 324 32120ft 466kts
14-Feb-21 20:11 45.759244 -119.043202 311 32120ft 466kts
14-Feb-21 20:12 45.843069 -119.184762 310 32120ft 466kts
14-Feb-21 20:13 45.926476 -119.326714 310 32120ft 466kts
14-Feb-21 20:14 46.009950 -119.469318 310 32120ft 466kts
14-Feb-21 20:15 46.093066 -119.611886 310 31932ft 466kts
14-Feb-21 20:16 46.175316 -119.753354 309 30458ft 449kts
14-Feb-21 20:17 46.252295 -119.886962 309 28645ft 425kts
14-Feb-21 20:18 46.326385 -120.016221 309 27006ft 414kts
14-Feb-21 20:19 46.398948 -120.143398 309 25706ft 405kts
14-Feb-21 20:20 46.469964 -120.268304 309 25121ft 402kts
14-Feb-21 20:21 46.540823 -120.393486 309 25120ft 402kts
14-Feb-21 20:22 46.607729 -120.523861 305 25120ft 402kts
14-Feb-21 20:23 46.671264 -120.657327 304 24844ft 401kts
14-Feb-21 20:24 46.733575 -120.788805 304 23078ft 389kts
14-Feb-21 20:25 46.793990 -120.916436 304 21017ft 378kts
14-Feb-21 20:26 46.852438 -121.040877 304 18970ft 362kts
14-Feb-21 20:27 46.892545 -121.126460 304 17741ft 346kts
14-Feb-21 20:28 46.945985 -121.240793 304 16319ft 336kts
14-Feb-21 20:29 46.998985 -121.354626 304 16306ft 338kts
14-Feb-21 20:30 47.051749 -121.468396 304 16306ft 338kts
14-Feb-21 20:31 47.104444 -121.582734 304 16306ft 338kts
14-Feb-21 20:32 47.157186 -121.697052 303 16306ft 338kts
14-Feb-21 20:33 47.209539 -121.811616 303 15714ft 335kts
14-Feb-21 20:34 47.261462 -121.925788 303 13433ft 337kts
14-Feb-21 20:35 47.311071 -122.035019 303 10935ft 295kts
14-Feb-21 20:36 47.355233 -122.132647 303 10307ft 286kts
14-Feb-21 20:37 47.423785 -122.174299 358 9305ft 286kts
14-Feb-21 20:38 47.499961 -122.177559 358 7511ft 253kts
14-Feb-21 20:39 47.568769 -122.180489 358 7299ft 227kts
14-Feb-21 20:40 47.631505 -122.183152 358 7305ft 219kts
14-Feb-21 20:41 47.692572 -122.185741 358 7306ft 218kts
14-Feb-21 20:42 47.750740 -122.188210 358 7307ft 208kts
14-Feb-21 20:43 47.805115 -122.204239 303 7290ft 198kts
14-Feb-21 20:44 47.810929 -122.278109 218 7006ft 198kts
14-Feb-21 20:45 47.760732 -122.305362 180 6165ft 195kts
14-Feb-21 20:46 47.709131 -122.305208 180 5174ft 177kts
14-Feb-21 20:47 47.661733 -122.305632 180 4271ft 167kts
14-Feb-21 20:48 47.617186 -122.306139 180 3413ft 155kts
14-Feb-21 20:49 47.575490 -122.306611 180 2623ft 147kts
14-Feb-21 20:50 47.537072 -122.306979 180 1874ft 131kts
14-Feb-21 20:51 47.500939 -122.307376 180 1189ft 126kts
14-Feb-21 20:52 47.466265 -122.307748 180 559ft 125kts
14-Feb-21 20:53 47.446093 -122.307750 148 395ft 11kts
14-Feb-21 20:54 47.445367 -122.306328 175 393ft 9kts
14-Feb-21 20:56 47.442774 -122.305429 182 386ft 11kts
14-Feb-21 20:57 47.439888 -122.304733 94 376ft 6kts
14-Feb-21 20:58 47.439153 -122.303378 140 376ft 0kts

Navigation Log

Ident Type
Flight plan parsing failed, navigation log unavailable